Time;durP1;ratioP1;P1;durP2;ratioP2;P2;SDS_P1;SDS_P2;PMS_P1;PMS_P2;Temp;Humidity;BMP_temperature;BMP_pressure;BME280_temperature;BME280_humidity;BME280_pressure;Samples;Min_cycle;Max_cycle;Signal;HPM_P1;HPM_P2
2022/07/15 00:00:58;;;;;;;6.03;2.22;;;14.70;1.00;15.60;94553.00;;;;7397664;19;20141;-77
2022/07/15 00:03:25;;;;;;;5.28;2.72;;;14.60;1.00;15.70;94577.00;;;;7397005;19;20152;-76
2022/07/15 00:05:59;;;;;;;3.47;2.47;;;14.60;1.00;15.60;94571.00;;;;7392921;19;20157;-74
2022/07/15 00:08:28;;;;;;;3.17;2.15;;;14.60;1.00;15.40;94565.00;;;;7395461;19;20592;-76
2022/07/15 00:10:55;;;;;;;4.57;2.60;;;14.60;1.00;15.50;94565.00;;;;7395237;19;20643;-75
2022/07/15 00:13:30;;;;;;;6.93;2.40;;;14.50;1.00;15.40;94547.00;;;;7396047;19;20169;-75
2022/07/15 00:15:58;;;;;;;5.10;2.42;;;14.50;1.00;15.20;94554.00;;;;7394292;19;20137;-75
2022/07/15 00:18:25;;;;;;;5.88;2.50;;;14.50;1.00;15.20;94546.00;;;;7393158;19;20539;-75
2022/07/15 00:20:58;;;;;;;5.45;2.08;;;14.40;1.00;15.10;94541.00;;;;7394424;19;20125;-75
2022/07/15 00:23:25;;;;;;;7.03;2.45;;;14.40;1.00;15.10;94557.00;;;;7393667;19;20606;-75
2022/07/15 00:25:56;;;;;;;6.65;2.50;;;14.30;1.00;15.10;94559.00;;;;7391567;19;20140;-76
2022/07/15 00:28:29;;;;;;;3.67;2.28;;;14.20;1.00;15.20;94543.00;;;;7392942;19;21007;-75
2022/07/15 00:30:56;;;;;;;6.38;2.33;;;14.20;1.00;15.00;94563.00;;;;7393149;19;20137;-75
2022/07/15 00:33:23;;;;;;;5.20;2.10;;;14.10;1.00;15.20;94542.00;;;;7392556;19;20486;-75
2022/07/15 00:35:57;;;;;;;4.05;2.40;;;14.10;1.00;15.20;94548.00;;;;7392953;19;20145;-75
2022/07/15 00:38:31;;;;;;;6.30;2.42;;;14.10;1.00;15.10;94548.00;;;;7390505;19;20168;-75
2022/07/15 00:41:04;;;;;;;4.50;2.45;;;14.10;1.00;15.00;94542.00;;;;7394552;19;20139;-75
2022/07/15 00:43:31;;;;;;;3.78;2.08;;;14.00;1.00;15.10;94531.00;;;;7393710;19;20732;-75
2022/07/15 00:45:58;;;;;;;5.75;2.47;;;14.00;1.00;14.90;94540.00;;;;7394896;19;20141;-75
2022/07/15 00:48:32;;;;;;;4.38;2.50;;;14.00;1.00;14.80;94543.00;;;;7392071;19;20597;-75
2022/07/15 00:51:00;;;;;;;6.38;2.55;;;14.00;1.00;14.70;94557.00;;;;7392120;19;20596;-75
2022/07/15 00:53:30;;;;;;;4.70;2.33;;;13.90;1.00;14.70;94556.00;;;;7392496;19;20161;-75
2022/07/15 00:56:08;;;;;;;5.03;2.50;;;13.80;1.00;14.60;94548.00;;;;7390985;19;20200;-75
2022/07/15 00:58:42;;;;;;;4.07;2.28;;;13.80;1.00;14.50;94538.00;;;;7393175;19;20467;-75
2022/07/15 01:01:20;;;;;;;7.95;2.80;;;13.70;1.00;14.40;94541.00;;;;7392394;19;20141;-76
2022/07/15 01:03:49;;;;;;;5.18;2.33;;;13.70;1.00;14.30;94522.00;;;;7393957;19;20125;-76
2022/07/15 01:06:16;;;;;;;4.72;2.30;;;13.60;1.00;14.20;94549.00;;;;7392302;19;20644;-75
2022/07/15 01:08:50;;;;;;;2.63;2.33;;;13.60;1.00;14.20;94548.00;;;;7393515;19;20117;-75
2022/07/15 01:11:17;;;;;;;8.50;2.60;;;13.50;1.00;14.10;94549.00;;;;7390236;19;20168;-75
2022/07/15 01:13:44;;;;;;;5.25;2.40;;;13.40;1.00;14.10;94530.00;;;;7394747;19;20144;-76
2022/07/15 01:16:18;;;;;;;5.13;2.60;;;13.40;1.00;14.00;94550.00;;;;7391271;19;20195;-75
2022/07/15 01:18:45;;;;;;;2.97;2.00;;;13.30;1.00;14.00;94546.00;;;;7389779;19;20542;-75
2022/07/15 01:21:13;;;;;;;3.20;2.20;;;13.30;1.00;14.00;94535.00;;;;7392865;19;20137;-76
2022/07/15 01:23:46;;;;;;;7.80;2.60;;;13.20;1.00;14.00;94529.00;;;;7394571;19;20619;-75
2022/07/15 01:26:14;;;;;;;3.85;2.35;;;13.20;1.00;13.90;94553.00;;;;7392389;19;20633;-75
2022/07/15 01:28:42;;;;;;;4.25;2.45;;;13.20;1.00;13.90;94553.00;;;;7391354;19;20624;-75
2022/07/15 01:31:16;;;;;;;2.72;2.03;;;13.10;1.00;13.90;94537.00;;;;7393280;19;20133;-75
2022/07/15 01:33:44;;;;;;;7.90;2.40;;;13.10;1.00;13.90;94530.00;;;;7394479;19;20113;-76
2022/07/15 01:36:11;;;;;;;4.38;2.25;;;13.00;1.00;13.80;94548.00;;;;7394982;19;20140;-75
2022/07/15 01:38:50;;;;;;;6.57;2.33;;;13.10;1.00;13.90;94519.00;;;;7392374;19;20622;-75
2022/07/15 01:41:37;;;;;;;4.35;2.35;;;13.00;1.00;14.00;94524.00;;;;7394987;19;20617;-75
2022/07/15 01:44:14;;;;;;;5.30;2.30;;;13.10;1.00;14.10;94542.00;;;;7395224;19;20129;-76
2022/07/15 01:46:41;;;;;;;3.58;2.10;;;13.10;1.00;14.00;94548.00;;;;7392592;19;20156;-75
2022/07/15 01:49:25;;;;;;;5.70;2.35;;;13.10;1.00;14.10;94533.00;;;;7393648;19;20143;-75
2022/07/15 01:52:01;;;;;;;4.57;2.60;;;13.20;1.00;14.10;94530.00;;;;7393444;19;20148;-75
2022/07/15 01:54:32;;;;;;;3.33;2.20;;;13.20;1.00;14.10;94537.00;;;;7390947;19;20140;-75
2022/07/15 01:56:59;;;;;;;6.07;1.98;;;13.20;1.00;14.00;94536.00;;;;7390119;19;20220;-76
2022/07/15 01:59:33;;;;;;;5.03;2.15;;;13.20;1.00;14.00;94519.00;;;;7394468;19;20152;-74
2022/07/15 02:02:00;;;;;;;3.92;2.30;;;13.20;1.00;13.90;94530.00;;;;7393387;19;20156;-74
2022/07/15 02:04:28;;;;;;;6.43;2.25;;;13.10;1.00;13.90;94532.00;;;;7389927;19;20184;-74
2022/07/15 02:07:02;;;;;;;3.60;2.10;;;13.10;1.00;13.80;94527.00;;;;7390832;19;20149;-74
2022/07/15 02:09:29;;;;;;;3.65;2.58;;;13.10;1.00;13.90;94516.00;;;;7393316;19;20135;-75
2022/07/15 02:11:56;;;;;;;4.15;2.15;;;13.00;1.00;13.90;94517.00;;;;7392417;19;20141;-74
2022/07/15 02:14:29;;;;;;;5.35;2.28;;;13.00;1.00;13.80;94527.00;;;;7389257;19;20152;-74
2022/07/15 02:16:57;;;;;;;4.45;2.30;;;13.00;1.00;13.60;94516.00;;;;7391574;19;20144;-75
2022/07/15 02:19:24;;;;;;;4.28;2.13;;;12.90;1.00;13.70;94495.00;;;;7391360;19;20599;-75
2022/07/15 02:21:57;;;;;;;3.08;1.95;;;12.90;1.00;13.70;94524.00;;;;7394244;19;20136;-75
2022/07/15 02:24:24;;;;;;;3.42;2.33;;;12.90;1.00;13.70;94522.00;;;;7393683;19;20153;-75
2022/07/15 02:26:51;;;;;;;5.10;2.20;;;12.90;1.00;13.70;94521.00;;;;7388878;19;20164;-75
2022/07/15 02:29:25;;;;;;;5.22;2.38;;;12.90;1.00;13.70;94512.00;;;;7395851;19;20148;-75
2022/07/15 02:31:52;;;;;;;3.47;2.00;;;12.90;1.00;13.60;94526.00;;;;7401155;19;20638;-75
2022/07/15 02:34:19;;;;;;;4.20;2.10;;;12.80;1.00;13.60;94511.00;;;;7399010;19;20150;-75
2022/07/15 02:37:06;;;;;;;4.65;2.20;;;12.80;1.00;13.60;94524.00;;;;7398649;19;20145;-75
2022/07/15 02:39:40;;;;;;;5.10;2.38;;;12.80;1.00;13.60;94498.00;;;;7400048;19;20484;-75
2022/07/15 02:42:13;;;;;;;6.63;2.00;;;12.80;1.00;13.60;94516.00;;;;7401429;19;20729;-75
2022/07/15 02:44:40;;;;;;;5.22;1.90;;;12.80;1.00;13.60;94496.00;;;;7396596;19;20133;-75
2022/07/15 02:47:07;;;;;;;3.15;2.10;;;12.70;1.00;13.50;94520.00;;;;7400209;19;20144;-76
2022/07/15 02:49:41;;;;;;;4.43;2.33;;;12.70;1.00;13.60;94521.00;;;;7400207;19;20588;-76
2022/07/15 02:52:08;;;;;;;4.18;2.10;;;12.70;1.00;13.60;94521.00;;;;7399274;19;20148;-76
2022/07/15 02:54:35;;;;;;;4.20;1.95;;;12.70;1.00;13.60;94523.00;;;;7394742;19;20145;-75
2022/07/15 02:57:09;;;;;;;3.80;2.20;;;12.70;1.00;13.60;94508.00;;;;7396592;19;20152;-76
2022/07/15 02:59:37;;;;;;;4.80;2.25;;;12.70;1.00;13.50;94517.00;;;;7397964;19;20148;-76
2022/07/15 03:02:04;;;;;;;4.75;2.50;;;12.70;1.00;13.50;94527.00;;;;7399368;19;20182;-77
2022/07/15 03:04:37;;;;;;;5.07;2.08;;;12.70;1.00;13.50;94503.00;;;;7399104;19;20133;-77
2022/07/15 03:07:11;;;;;;;4.20;2.30;;;12.70;1.00;13.50;94527.00;;;;7399420;19;20143;-77
2022/07/15 03:09:44;;;;;;;4.32;2.13;;;12.70;1.00;13.50;94529.00;;;;7398467;19;20139;-76
2022/07/15 03:12:12;;;;;;;4.22;2.20;;;12.60;1.00;13.50;94536.00;;;;7399419;19;20469;-76
2022/07/15 03:14:40;;;;;;;6.05;2.20;;;12.50;1.00;13.60;94532.00;;;;7394529;19;20696;-76
2022/07/15 03:17:13;;;;;;;7.40;2.22;;;12.50;1.00;13.60;94513.00;;;;7397296;19;20128;-76
2022/07/15 03:19:41;;;;;;;5.13;1.83;;;12.60;1.00;13.30;94513.00;;;;7400253;19;20136;-76
2022/07/15 03:22:08;;;;;;;6.93;2.22;;;12.50;1.00;13.20;94536.00;;;;7397938;19;20591;-76
2022/07/15 03:24:42;;;;;;;3.17;1.70;;;12.40;1.00;13.10;94541.00;;;;7395567;19;20212;-77
2022/07/15 03:27:10;;;;;;;6.47;2.20;;;12.40;1.00;13.10;94519.00;;;;7397540;19;20152;-76
2022/07/15 03:29:37;;;;;;;4.32;2.00;;;12.40;1.00;13.30;94534.00;;;;7396805;19;20152;-76
2022/07/15 03:32:15;;;;;;;3.95;1.98;;;12.40;1.00;13.40;94538.00;;;;7397644;19;20143;-76
2022/07/15 03:34:43;;;;;;;5.00;2.85;;;12.40;1.00;13.50;94538.00;;;;7394719;19;20145;-76
2022/07/15 03:37:11;;;;;;;5.10;2.03;;;12.30;1.00;13.60;94516.00;;;;7398084;19;20153;-76
2022/07/15 03:39:51;;;;;;;4.40;2.20;;;12.40;1.00;13.40;94528.00;;;;7392970;19;20133;-76
2022/07/15 03:42:19;;;;;;;6.68;2.38;;;12.40;1.00;13.40;94512.00;;;;7396788;19;20152;-76
2022/07/15 03:44:52;;;;;;;6.50;4.32;;;12.40;1.00;13.50;94526.00;;;;7398850;19;20133;-76
2022/07/15 03:47:20;;;;;;;3.92;2.70;;;12.50;1.00;13.40;94513.00;;;;7396429;19;20156;-76
2022/07/15 03:49:47;;;;;;;2.85;2.00;;;12.50;1.00;13.40;94539.00;;;;7397378;19;20149;-76
2022/07/15 03:52:21;;;;;;;5.47;2.53;;;12.60;1.00;13.50;94528.00;;;;7398545;19;20602;-76
2022/07/15 03:54:48;;;;;;;3.95;1.95;;;12.60;1.00;13.60;94521.00;;;;7394777;19;20459;-76
2022/07/15 03:57:15;;;;;;;7.63;2.50;;;12.60;1.00;13.80;94533.00;;;;7396284;19;20760;-76
2022/07/15 03:59:49;;;;;;;2.80;1.80;;;12.60;1.00;13.80;94528.00;;;;7398430;19;20129;-76
2022/07/15 04:02:16;;;;;;;7.57;2.25;;;12.70;1.00;13.90;94535.00;;;;7397027;19;20144;-76
2022/07/15 04:04:43;;;;;;;3.50;1.90;;;12.80;1.00;13.90;94520.00;;;;7395911;19;20133;-76
2022/07/15 04:07:17;;;;;;;5.72;2.90;;;12.80;1.00;13.90;94526.00;;;;7396206;19;20133;-76
2022/07/15 04:09:44;;;;;;;5.93;2.15;;;12.90;1.00;14.00;94531.00;;;;7396438;19;20149;-75
2022/07/15 04:12:11;;;;;;;3.78;2.30;;;12.90;1.00;14.00;94485.00;;;;7395830;19;20169;-76
2022/07/15 04:14:45;;;;;;;3.72;2.22;;;13.00;1.00;14.20;94515.00;;;;7393837;19;20615;-76
2022/07/15 04:17:13;;;;;;;4.65;1.67;;;13.10;1.00;14.30;94547.00;;;;7394607;19;20149;-76
2022/07/15 04:19:40;;;;;;;4.50;1.92;;;13.20;1.00;14.40;94529.00;;;;7395548;19;20156;-76
2022/07/15 04:22:14;;;;;;;3.58;1.90;;;13.30;1.00;14.50;94521.00;;;;7396803;19;20162;-76
2022/07/15 04:24:41;;;;;;;8.43;2.15;;;13.40;1.00;14.60;94537.00;;;;7387836;19;20160;-76
2022/07/15 04:27:08;;;;;;;7.60;2.00;;;13.50;1.00;14.60;94510.00;;;;7394085;19;20606;-77
2022/07/15 04:29:43;;;;;;;3.67;1.70;;;13.60;1.00;14.70;94537.00;;;;7395947;19;20120;-76
2022/07/15 04:32:10;;;;;;;3.58;1.73;;;13.70;1.00;14.70;94520.00;;;;7395778;19;20145;-76
2022/07/15 04:34:37;;;;;;;3.53;1.90;;;13.70;1.00;14.80;94543.00;;;;7397777;19;20143;-76
2022/07/15 04:37:26;;;;;;;2.50;1.70;;;13.80;1.00;14.80;94533.00;;;;7398407;19;20518;-74
2022/07/15 04:40:09;;;;;;;5.60;1.98;;;13.80;1.00;14.90;94542.00;;;;7399375;19;20598;-76
2022/07/15 04:42:42;;;;;;;2.72;1.77;;;13.90;1.00;14.90;94531.00;;;;7397769;19;20580;-76
2022/07/15 04:45:10;;;;;;;3.28;1.70;;;13.90;1.00;15.00;94499.00;;;;7398012;19;20125;-76
2022/07/15 04:47:39;;;;;;;5.93;2.22;;;14.00;1.00;15.10;94522.00;;;;7398318;19;20148;-76
2022/07/15 04:53:15;;;;;;;4.18;2.03;;;14.20;1.00;15.40;94537.00;;;;7394688;19;20200;-74
2022/07/15 04:55:50;;;;;;;4.55;2.80;;;14.20;1.00;15.50;94534.00;;;;7398694;19;20120;-75
2022/07/15 04:58:17;;;;;;;4.55;2.75;;;14.40;1.00;15.70;94541.00;;;;7396707;19;20146;-75
2022/07/15 05:00:46;;;;;;;5.35;2.60;;;14.50;1.00;15.80;94516.00;;;;7395637;19;20646;-75
2022/07/15 05:03:20;;;;;;;3.60;2.65;;;14.70;1.00;15.90;94516.00;;;;7397276;19;20507;-75
2022/07/15 05:05:47;;;;;;;4.63;2.35;;;14.80;1.00;15.90;94516.00;;;;7401034;19;20129;-75
2022/07/15 05:08:14;;;;;;;6.95;2.00;;;14.90;1.00;16.00;94526.00;;;;7399135;19;20596;-75
2022/07/15 05:10:48;;;;;;;4.47;1.92;;;15.00;1.00;16.20;94511.00;;;;7397478;19;20172;-74
2022/07/15 05:13:16;;;;;;;3.30;1.90;;;15.10;1.00;16.30;94494.00;;;;7397425;19;20608;-75
2022/07/15 05:15:43;;;;;;;3.90;2.00;;;15.20;1.00;16.50;94493.00;;;;7396086;19;20152;-75
2022/07/15 05:18:17;;;;;;;4.25;1.70;;;15.40;1.00;16.60;94530.00;;;;7395062;19;20144;-75
2022/07/15 05:20:44;;;;;;;4.30;2.15;;;15.60;1.00;16.70;94542.00;;;;7396118;19;20574;-75
2022/07/15 05:23:16;;;;;;;7.68;4.65;;;15.70;1.00;16.60;94550.00;;;;7398146;19;20148;-73
2022/07/15 05:25:53;;;;;;;4.80;2.75;;;15.70;1.00;16.50;94554.00;;;;7399311;19;20579;-75
2022/07/15 05:32:22;;;;;;;2.42;1.85;;;15.80;1.00;16.40;94538.00;;;;7386697;19;20595;-75
2022/07/15 05:34:57;;;;;;;4.40;1.90;;;15.80;1.00;16.50;94556.00;;;;7396764;19;20511;-75
2022/07/15 05:37:26;;;;;;;4.38;1.55;;;15.80;1.00;16.60;94555.00;;;;7398371;19;20650;-74
2022/07/15 05:39:54;;;;;;;6.43;2.55;;;15.80;1.00;16.70;94543.00;;;;7395462;19;20262;-75
2022/07/15 05:42:28;;;;;;;4.80;2.15;;;15.90;1.00;17.20;94536.00;;;;7398637;19;20614;-74
2022/07/15 05:44:57;;;;;;;6.32;2.00;;;16.00;1.00;17.50;94548.00;;;;7398114;19;20148;-75
2022/07/15 05:47:25;;;;;;;6.07;2.10;;;16.30;1.00;17.80;94524.00;;;;7397291;19;20133;-74
2022/07/15 05:49:59;;;;;;;4.50;2.13;;;16.60;99.90;18.00;94548.00;;;;7396043;19;20249;-74
2022/07/15 05:52:27;;;;;;;4.28;2.20;;;16.90;99.90;18.20;94534.00;;;;7399583;19;20140;-75
2022/07/15 05:54:54;;;;;;;3.78;1.80;;;17.10;99.90;18.20;94529.00;;;;7393008;19;20515;-76
2022/07/15 05:57:28;;;;;;;3.63;1.70;;;17.30;99.90;18.30;94537.00;;;;7398072;19;20515;-74
2022/07/15 05:59:55;;;;;;;2.72;1.90;;;17.40;99.90;18.30;94548.00;;;;7395178;19;20916;-74
2022/07/15 06:02:23;;;;;;;2.70;1.50;;;17.60;99.90;18.60;94530.00;;;;7392675;19;20128;-74
2022/07/15 06:04:57;;;;;;;2.83;1.60;;;17.70;99.90;18.80;94537.00;;;;7391811;19;20625;-74
2022/07/15 06:08:14;;;;;;;3.22;1.80;;;17.80;99.90;19.00;94552.00;;;;7387678;19;20137;-74
2022/07/15 06:14:45;;;;;;;2.25;1.60;;;18.10;99.90;19.40;94544.00;;;;7378525;19;20157;-74
2022/07/15 06:17:19;;;;;;;2.80;1.80;;;18.30;99.90;19.40;94549.00;;;;7393283;19;20216;-73
2022/07/15 06:19:46;;;;;;;2.38;1.67;;;18.40;99.90;19.50;94552.00;;;;7394642;19;20129;-73
2022/07/15 06:22:14;;;;;;;4.78;1.73;;;18.50;99.90;19.80;94536.00;;;;7391348;19;20934;-75
2022/07/15 06:24:47;;;;;;;5.90;1.98;;;18.60;99.90;19.70;94538.00;;;;7396088;19;20184;-74
2022/07/15 06:27:15;;;;;;;2.90;1.65;;;18.50;99.90;20.00;94567.00;;;;7391844;19;20675;-77
2022/07/15 06:29:42;;;;;;;7.05;1.77;;;18.70;99.90;20.20;94462.00;;;;7392360;19;20694;-74
2022/07/15 06:32:18;;;;;;;3.42;1.80;;;18.90;99.90;20.40;94557.00;;;;7391960;19;20148;-75
2022/07/15 06:34:46;;;;;;;3.28;1.80;;;19.00;99.90;20.60;94546.00;;;;7393928;19;20479;-75
2022/07/15 06:37:13;;;;;;;2.65;1.73;;;19.10;99.90;20.80;94557.00;;;;7391293;19;20144;-74
2022/07/15 06:39:55;;;;;;;2.10;1.50;;;19.30;99.90;20.80;94545.00;;;;7389464;19;20185;-74
2022/07/15 06:42:22;;;;;;;3.80;1.63;;;19.40;99.90;20.80;94550.00;;;;7394945;19;20128;-73
2022/07/15 06:44:56;;;;;;;2.55;1.60;;;19.40;99.90;21.10;94559.00;;;;7395526;19;20589;-74
2022/07/15 06:47:24;;;;;;;2.17;1.75;;;19.50;99.90;20.90;94537.00;;;;7390806;19;20153;-73
2022/07/15 06:49:51;;;;;;;2.45;1.80;;;19.60;99.90;20.70;94567.00;;;;7390854;19;20208;-74
2022/07/15 06:52:26;;;;;;;2.28;1.70;;;19.70;99.90;20.70;94564.00;;;;7392555;19;20165;-74
2022/07/15 06:54:53;;;;;;;2.50;1.95;;;19.80;99.90;20.60;94541.00;;;;7391488;19;20169;-73
2022/07/15 06:57:21;;;;;;;3.65;1.60;;;19.70;99.90;20.40;94553.00;;;;7389418;19;20806;-74
2022/07/15 06:59:56;;;;;;;2.75;1.95;;;19.80;99.90;20.20;94562.00;;;;7389019;19;20143;-73
2022/07/15 07:02:24;;;;;;;3.33;1.27;;;19.70;99.90;20.20;94551.00;;;;7390748;19;20149;-75
2022/07/15 07:04:52;;;;;;;3.72;1.85;;;19.70;99.90;20.10;94562.00;;;;7393204;19;20187;-75
2022/07/15 07:07:26;;;;;;;2.08;1.70;;;19.60;99.90;20.10;94551.00;;;;7392485;19;20147;-75
2022/07/15 07:10:00;;;;;;;2.08;1.70;;;19.60;99.90;20.10;94550.00;;;;7393797;19;20125;-75
2022/07/15 07:16:30;;;;;;;5.53;1.75;;;19.80;99.90;20.70;94539.00;;;;7388378;19;20173;-74
2022/07/15 07:19:05;;;;;;;5.13;1.80;;;20.00;99.90;20.70;94546.00;;;;7398419;19;20260;-74
2022/07/15 07:21:32;;;;;;;4.53;1.83;;;20.10;99.90;20.70;94550.00;;;;7399828;19;20132;-74
2022/07/15 07:24:00;;;;;;;5.07;1.90;;;20.10;99.90;21.10;94554.00;;;;7398954;19;20511;-75
2022/07/15 07:26:35;;;;;;;3.60;1.60;;;20.20;99.90;21.30;94540.00;;;;7396811;19;20149;-75
2022/07/15 07:29:03;;;;;;;2.55;1.70;;;20.40;99.90;21.30;94530.00;;;;7398992;19;20140;-74
2022/07/15 07:31:30;;;;;;;2.17;1.60;;;20.60;99.90;20.80;94560.00;;;;7397118;19;20152;-75
2022/07/15 07:34:04;;;;;;;4.97;1.92;;;20.50;99.90;20.60;94539.00;;;;7398100;19;20156;-74
2022/07/15 07:36:31;;;;;;;4.00;1.90;;;20.50;99.90;21.00;94553.00;;;;7395970;19;20143;-74
2022/07/15 07:38:59;;;;;;;2.63;1.83;;;20.50;99.90;21.30;94557.00;;;;7395644;19;20599;-74
2022/07/15 07:41:33;;;;;;;2.85;1.70;;;20.60;99.90;21.30;94538.00;;;;7396084;19;20149;-76
2022/07/15 07:44:00;;;;;;;3.15;1.83;;;20.60;99.90;21.30;94549.00;;;;7398702;19;20196;-74
2022/07/15 07:46:28;;;;;;;4.53;1.70;;;20.70;99.90;21.50;94531.00;;;;7397790;19;20136;-75
2022/07/15 07:49:03;;;;;;;3.17;1.73;;;20.80;99.90;22.00;94553.00;;;;7397017;19;20473;-76
2022/07/15 07:51:51;;;;;;;3.13;1.65;;;20.70;99.90;21.80;94545.00;;;;7397602;19;20527;-75
2022/07/15 07:54:25;;;;;;;2.03;1.70;;;20.90;99.90;21.60;94556.00;;;;7394337;19;20169;-76
2022/07/15 07:56:52;;;;;;;4.55;2.20;;;20.90;99.90;21.40;94547.00;;;;7396967;19;20152;-73
2022/07/15 07:59:20;;;;;;;4.78;1.95;;;20.80;99.90;21.40;94545.00;;;;7396877;19;20141;-75
2022/07/15 08:01:54;;;;;;;4.20;2.13;;;20.80;99.90;21.60;94544.00;;;;7397925;19;20137;-75
2022/07/15 08:04:21;;;;;;;6.97;2.00;;;20.90;99.90;21.80;94554.00;;;;7393988;19;20169;-75
2022/07/15 08:06:49;;;;;;;2.45;2.08;;;21.00;99.90;21.90;94535.00;;;;7398000;19;20494;-75
2022/07/15 08:09:23;;;;;;;4.47;1.90;;;21.10;99.90;22.20;94525.00;;;;7397883;19;20489;-76
2022/07/15 08:11:50;;;;;;;4.38;2.40;;;21.30;99.90;22.70;94541.00;;;;7395375;19;20165;-76
2022/07/15 08:14:18;;;;;;;4.70;2.22;;;21.60;99.90;22.90;94548.00;;;;7395533;19;20626;-76
2022/07/15 08:16:52;;;;;;;4.97;2.17;;;21.80;99.90;23.00;94544.00;;;;7395637;19;20156;-74
2022/07/15 08:19:20;;;;;;;6.00;2.38;;;22.10;99.90;22.60;94532.00;;;;7396348;19;20155;-74
2022/07/15 08:21:47;;;;;;;4.25;2.20;;;22.30;99.90;23.00;94512.00;;;;7396662;19;20184;-76
2022/07/15 08:24:22;;;;;;;3.65;1.95;;;22.50;99.90;22.90;94527.00;;;;7395533;19;20128;-77
2022/07/15 08:26:50;;;;;;;5.55;2.30;;;22.60;99.90;22.80;94545.00;;;;7393789;19;20144;-77
2022/07/15 08:29:17;;;;;;;3.25;2.10;;;22.50;99.90;22.30;94530.00;;;;7398266;19;20239;-75
2022/07/15 08:31:51;;;;;;;4.80;1.92;;;22.30;99.90;22.60;94535.00;;;;7395343;19;20717;-76
2022/07/15 08:34:19;;;;;;;4.10;2.30;;;22.40;99.90;22.60;94533.00;;;;7392030;19;20220;-76
2022/07/15 08:36:46;;;;;;;3.15;2.10;;;22.40;99.90;23.10;94527.00;;;;7394068;19;20444;-76
2022/07/15 08:39:32;;;;;;;2.97;2.05;;;22.50;99.90;22.90;94533.00;;;;7394144;19;20806;-75
2022/07/15 08:42:07;;;;;;;5.35;2.30;;;22.40;99.90;23.00;94546.00;;;;7394560;19;20159;-76
2022/07/15 08:44:41;;;;;;;2.97;1.88;;;22.50;99.90;23.00;94530.00;;;;7395241;19;20144;-75
2022/07/15 08:47:10;;;;;;;2.80;2.00;;;22.60;99.90;23.00;94564.00;;;;7392606;19;20627;-76
2022/07/15 08:49:58;;;;;;;3.13;2.10;;;22.60;99.90;23.30;94539.00;;;;7392917;19;20140;-76
2022/07/15 08:52:34;;;;;;;6.20;2.50;;;22.60;99.90;24.10;94563.00;;;;7392115;19;20485;-76
2022/07/15 08:55:01;;;;;;;3.17;2.05;;;22.80;99.90;23.40;94543.00;;;;7393090;19;20153;-78
2022/07/15 08:57:29;;;;;;;3.20;2.10;;;22.80;99.90;23.00;94545.00;;;;7394183;19;20595;-79
2022/07/15 09:00:11;;;;;;;4.47;2.08;;;22.70;99.90;22.80;94557.00;;;;7391778;19;20611;-74
2022/07/15 09:02:39;;;;;;;2.97;2.10;;;22.50;99.90;22.50;94559.00;;;;7393887;19;20193;-76
2022/07/15 09:05:21;;;;;;;2.72;2.00;;;22.30;99.90;23.30;94571.00;;;;7394144;19;20215;-75
2022/07/15 09:07:57;;;;;;;3.25;2.00;;;22.30;99.90;23.20;94576.00;;;;7393637;19;20128;-76
2022/07/15 09:10:50;;;;;;;2.38;2.00;;;22.40;99.90;23.40;94566.00;;;;7394296;19;20148;-75
2022/07/15 09:13:30;;;;;;;4.97;2.20;;;22.60;99.90;23.70;94545.00;;;;7392819;19;20485;-75
2022/07/15 09:16:21;;;;;;;4.88;2.22;;;22.70;99.90;24.50;94542.00;;;;7393104;19;20154;-76
2022/07/15 09:18:50;;;;;;;7.43;2.30;;;23.10;99.90;24.10;94559.00;;;;7395456;19;20510;-75
2022/07/15 09:21:26;;;;;;;8.13;2.63;;;23.40;99.90;23.00;94566.00;;;;7394094;19;20128;-76
2022/07/15 09:23:54;;;;;;;4.43;2.30;;;23.20;99.90;22.40;94571.00;;;;7394321;19;20757;-76
2022/07/15 09:26:36;;;;;;;3.15;1.95;;;22.80;99.90;22.20;94547.00;;;;7392704;19;20604;-76
2022/07/15 09:36:01;;;;;;;5.25;2.13;;;23.00;99.90;24.70;94558.00;;;;7390350;19;20159;-73
2022/07/15 09:38:00;;;;;;;3.80;2.13;;;23.50;99.90;24.90;94551.00;;;;7393215;19;20622;-75
2022/07/15 09:40:49;;;;;;;3.17;2.00;;;23.80;99.90;25.30;94563.00;;;;7392627;19;20132;-75
2022/07/15 09:43:17;;;;;;;5.28;2.17;;;24.30;99.90;25.10;94551.00;;;;7393916;19;20590;-75
2022/07/15 09:45:59;;;;;;;4.47;2.22;;;24.50;99.90;25.90;94563.00;;;;7392709;19;20610;-76
2022/07/15 09:48:28;;;;;;;2.30;2.10;;;24.90;99.90;26.30;94547.00;;;;7390180;19;20633;-74
2022/07/15 09:51:01;;;;;;;5.60;2.30;;;25.20;99.90;25.50;94572.00;;;;7392319;19;20204;-76
2022/07/15 09:53:29;;;;;;;5.30;2.63;;;24.90;99.90;24.60;94574.00;;;;7393878;19;20188;-75
2022/07/15 09:55:57;;;;;;;3.10;2.47;;;24.60;99.90;24.00;94576.00;;;;7393019;19;20124;-75
2022/07/15 09:58:31;;;;;;;7.40;2.70;;;24.00;99.90;23.40;94590.00;;;;7392501;19;20145;-77
2022/07/15 10:00:59;;;;;;;2.72;2.10;;;23.70;99.90;23.20;94596.00;;;;7392393;19;20121;-75
2022/07/15 10:03:26;;;;;;;6.88;2.10;;;23.30;99.90;23.10;94573.00;;;;7392059;19;20172;-76
2022/07/15 10:06:02;;;;;;;4.45;2.33;;;23.00;99.90;24.40;94566.00;;;;7392749;19;20152;-75
2022/07/15 10:08:35;;;;;;;6.60;2.25;;;23.30;99.90;25.00;94573.00;;;;7392015;19;20498;-76
2022/07/15 10:11:12;;;;;;;5.82;2.72;;;23.80;99.90;25.50;94575.00;;;;7388338;19;20176;-78
2022/07/15 10:13:56;;;;;;;2.70;2.20;;;24.30;99.90;26.20;94562.00;;;;7392996;19;20622;-77
2022/07/15 10:16:48;;;;;;;4.07;2.53;;;24.80;99.90;26.30;94570.00;;;;7389651;19;20132;-78
2022/07/15 10:19:34;;;;;;;3.45;2.47;;;25.60;99.90;26.20;94571.00;;;;7392086;19;20237;-77
2022/07/15 10:23:12;;;;;;;4.13;2.08;;;25.70;99.90;25.10;94567.00;;;;7390945;19;20160;-75
2022/07/15 10:26:12;;;;;;;4.70;2.40;;;25.80;99.90;25.00;94558.00;;;;7382166;19;20135;-76
2022/07/15 10:29:02;;;;;;;3.33;2.20;;;25.20;99.90;24.30;94577.00;;;;7391419;19;20622;-75
2022/07/15 10:31:32;;;;;;;5.18;2.95;;;25.00;99.90;23.90;94566.00;;;;7390222;19;20155;-76
2022/07/15 10:34:12;;;;;;;5.68;2.85;;;24.40;99.90;24.20;94559.00;;;;7391349;19;20137;-75
2022/07/15 10:36:52;;;;;;;5.22;2.55;;;24.20;99.90;24.30;94573.00;;;;7388616;19;20161;-76
2022/07/15 10:40:06;;;;;;;5.03;2.33;;;24.20;99.90;23.70;94576.00;;;;7390508;19;20172;-75
2022/07/15 10:43:03;;;;;;;5.20;2.38;;;23.70;99.90;23.00;94549.00;;;;7390430;19;20163;-77
2022/07/15 10:46:27;;;;;;;2.90;2.30;;;23.30;99.90;25.00;94540.00;;;;7389987;19;20153;-75
2022/07/15 10:49:00;;;;;;;5.25;2.67;;;23.50;99.90;26.00;94544.00;;;;7388217;19;20168;-77
2022/07/15 10:51:36;;;;;;;3.22;2.40;;;24.30;99.90;26.60;94546.00;;;;7397525;19;20172;-77
2022/07/15 10:54:17;;;;;;;6.25;2.72;;;24.90;99.90;26.70;94553.00;;;;7399251;19;20142;-76
2022/07/15 10:56:51;;;;;;;4.60;2.55;;;25.30;99.90;26.00;94557.00;;;;7398288;19;20128;-74
2022/07/15 10:59:21;;;;;;;2.85;2.17;;;25.30;99.90;24.20;94557.00;;;;7399685;19;20208;-77
2022/07/15 11:02:11;;;;;;;3.65;2.50;;;24.90;99.90;23.70;94553.00;;;;7397632;19;20141;-75
2022/07/15 11:04:45;;;;;;;4.93;2.20;;;24.40;99.90;23.70;94545.00;;;;7398170;19;20629;-75
2022/07/15 11:07:16;;;;;;;3.17;2.40;;;23.90;99.90;24.40;94534.00;;;;7400391;19;20158;-77
2022/07/15 11:10:03;;;;;;;9.60;2.88;;;23.80;99.90;25.60;94525.00;;;;7398435;19;20121;-77
2022/07/15 11:12:59;;;;;;;3.67;2.50;;;24.10;99.90;26.30;94498.00;;;;7395832;19;20539;-77
2022/07/15 11:15:27;;;;;;;4.20;2.22;;;24.90;99.90;26.00;94522.00;;;;7398269;19;20145;-76
2022/07/15 11:18:03;;;;;;;8.88;2.80;;;25.20;99.90;26.50;94495.00;;;;7397518;19;20149;-76
2022/07/15 11:20:38;;;;;;;5.38;2.85;;;25.60;99.90;27.00;94524.00;;;;7397841;19;20133;-76
2022/07/15 11:23:11;;;;;;;5.10;2.70;;;25.90;99.90;26.50;94518.00;;;;7398656;19;20145;-79
2022/07/15 11:25:48;;;;;;;4.70;2.60;;;26.00;99.90;26.30;94511.00;;;;7398625;19;20461;-77
2022/07/15 11:28:22;;;;;;;7.97;2.97;;;25.90;99.90;26.40;94514.00;;;;7396864;19;20128;-78
2022/07/15 11:30:53;;;;;;;3.95;2.70;;;26.00;99.90;26.40;94531.00;;;;7397326;19;20611;-78
2022/07/15 11:33:27;;;;;;;5.05;2.42;;;26.10;99.90;26.80;94529.00;;;;7399428;19;20471;-76
2022/07/15 11:36:03;;;;;;;6.40;2.67;;;26.00;99.90;27.20;94498.00;;;;7396970;19;20125;-78
2022/07/15 11:38:45;;;;;;;4.90;2.70;;;26.30;99.90;27.30;94523.00;;;;7395348;19;20498;-76
2022/07/15 11:47:02;;;;;;;2.58;2.20;;;25.80;99.90;26.50;94532.00;;;;7397092;19;20623;-76
2022/07/15 11:49:39;;;;;;;4.97;2.47;;;25.50;99.90;26.20;94514.00;;;;7399336;19;20726;-76